createdAt,value
2017-08-03T00:00:59.257Z,11.77
2017-08-03T00:03:27.533Z,11.65
2017-08-03T00:05:56.618Z,13.27
2017-08-03T00:08:25.708Z,11.50
2017-08-03T00:10:53.979Z,10.75
2017-08-03T00:13:22.256Z,11.63
2017-08-03T00:15:50.581Z,12.27
2017-08-03T00:18:19.739Z,11.40
2017-08-03T00:20:48.012Z,10.30
2017-08-03T00:23:16.336Z,11.75
2017-08-03T00:25:44.607Z,16.52
2017-08-03T00:28:12.906Z,11.38
2017-08-03T00:30:41.980Z,11.75
2017-08-03T00:33:11.019Z,16.58
2017-08-03T00:35:39.300Z,12.45
2017-08-03T00:38:07.603Z,11.05
2017-08-03T00:40:36.643Z,13.52
2017-08-03T00:43:04.915Z,11.65
2017-08-03T00:45:33.232Z,15.45
2017-08-03T00:48:01.513Z,13.75
2017-08-03T00:50:29.781Z,12.55
2017-08-03T00:52:58.095Z,12.27
2017-08-03T00:55:26.367Z,14.00
2017-08-03T00:57:54.644Z,12.73
2017-08-03T01:00:22.956Z,12.48
2017-08-03T01:02:51.999Z,12.82
2017-08-03T01:05:20.279Z,15.15
2017-08-03T01:07:48.603Z,12.13
2017-08-03T01:10:16.876Z,12.15
2017-08-03T01:12:45.156Z,11.35
2017-08-03T01:15:13.459Z,10.85
2017-08-03T01:17:42.501Z,12.00
2017-08-03T01:20:11.012Z,10.70
2017-08-03T01:22:39.327Z,15.88
2017-08-03T01:25:07.596Z,15.55
2017-08-03T01:27:35.871Z,14.35
2017-08-03T01:30:04.960Z,12.02
2017-08-03T01:32:33.996Z,12.57
2017-08-03T01:35:02.276Z,11.68
2017-08-03T01:37:30.584Z,14.87
2017-08-03T01:39:58.868Z,12.20
2017-08-03T01:42:27.146Z,13.27
2017-08-03T01:44:55.463Z,11.73
2017-08-03T01:47:23.739Z,10.85
2017-08-03T01:49:52.013Z,12.07
2017-08-03T01:52:20.340Z,10.10
2017-08-03T01:54:48.610Z,10.50
2017-08-03T01:57:16.873Z,10.73
2017-08-03T01:59:45.188Z,12.30
2017-08-03T02:02:13.460Z,11.48
2017-08-03T02:04:41.731Z,11.50
2017-08-03T02:07:10.823Z,11.40
2017-08-03T02:09:39.858Z,11.82
2017-08-03T02:12:08.137Z,10.98
2017-08-03T02:14:36.459Z,10.73
2017-08-03T02:17:04.732Z,13.75
2017-08-03T02:19:33.008Z,11.57
2017-08-03T02:22:01.316Z,11.57
2017-08-03T02:24:29.592Z,11.85
2017-08-03T02:26:57.876Z,12.40
2017-08-03T02:29:26.185Z,14.82
2017-08-03T02:31:55.224Z,12.00
2017-08-03T02:34:23.508Z,12.07
2017-08-03T02:36:51.989Z,12.85
2017-08-03T02:39:21.032Z,11.40
2017-08-03T02:41:49.316Z,12.18
2017-08-03T02:44:17.620Z,14.50
2017-08-03T02:46:45.908Z,12.15
2017-08-03T02:49:14.189Z,12.40
2017-08-03T02:51:42.500Z,12.07
2017-08-03T02:54:10.792Z,11.95
2017-08-03T02:56:39.063Z,11.52
2017-08-03T02:59:07.371Z,12.57
2017-08-03T03:01:36.411Z,12.73
2017-08-03T03:04:04.691Z,11.68
2017-08-03T03:06:32.999Z,13.85
2017-08-03T03:09:01.271Z,12.13
2017-08-03T03:11:29.546Z,12.05
2017-08-03T03:13:58.059Z,13.30
2017-08-03T03:16:27.095Z,12.75
2017-08-03T03:18:55.367Z,11.20
2017-08-03T03:21:23.686Z,12.82
2017-08-03T03:23:51.956Z,11.48
2017-08-03T03:26:20.232Z,12.00
2017-08-03T03:28:48.551Z,12.70
2017-08-03T03:31:17.599Z,11.55
2017-08-03T03:33:45.875Z,11.73
2017-08-03T03:36:14.181Z,11.95
2017-08-03T03:38:42.451Z,10.85
2017-08-03T03:41:10.720Z,10.82
2017-08-03T03:43:39.123Z,15.18
2017-08-03T03:46:08.163Z,12.23
2017-08-03T03:48:36.439Z,11.88
2017-08-03T03:51:04.760Z,12.13
2017-08-03T03:53:33.038Z,13.20
2017-08-03T03:56:01.312Z,12.93
2017-08-03T03:58:29.620Z,13.00
2017-08-03T04:00:58.663Z,12.63
2017-08-03T04:03:26.952Z,11.68
2017-08-03T04:05:56.028Z,11.57
2017-08-03T04:08:24.291Z,9.90
2017-08-03T04:10:53.336Z,12.63
2017-08-03T04:13:21.640Z,11.20
2017-08-03T04:15:50.679Z,11.95
2017-08-03T04:18:18.952Z,10.30
2017-08-03T04:20:47.255Z,10.75
2017-08-03T04:23:16.612Z,11.48
2017-08-03T04:25:45.244Z,10.93
2017-08-03T04:28:13.560Z,13.00
2017-08-03T04:30:42.604Z,11.10
2017-08-03T04:33:10.875Z,12.40
2017-08-03T04:35:39.200Z,11.20
2017-08-03T04:38:07.481Z,11.73
2017-08-03T04:40:35.748Z,10.00
2017-08-03T04:43:04.056Z,11.18
2017-08-03T04:45:32.327Z,11.32
2017-08-03T04:48:00.600Z,10.02
2017-08-03T04:50:28.915Z,11.07
2017-08-03T04:52:57.188Z,10.60
2017-08-03T04:55:26.220Z,14.40
2017-08-03T04:57:54.536Z,9.50
2017-08-03T05:00:23.571Z,13.20
2017-08-03T05:02:51.845Z,11.10
2017-08-03T05:05:20.159Z,11.12
2017-08-03T05:07:48.446Z,10.80
2017-08-03T05:10:16.802Z,9.77
2017-08-03T05:12:45.115Z,9.90
2017-08-03T05:15:13.379Z,11.98
2017-08-03T05:17:42.420Z,10.80
2017-08-03T05:20:10.923Z,14.77
2017-08-03T05:22:39.972Z,11.93
2017-08-03T05:25:08.248Z,11.30
2017-08-03T05:27:36.571Z,11.00
2017-08-03T05:30:04.851Z,11.23
2017-08-03T05:32:33.134Z,10.80
2017-08-03T05:35:01.516Z,10.50
2017-08-03T05:37:30.551Z,10.63
2017-08-03T05:39:58.824Z,11.75
2017-08-03T05:42:27.145Z,16.00
2017-08-03T05:44:55.434Z,11.55
2017-08-03T05:47:23.716Z,10.32
2017-08-03T05:49:52.024Z,12.88
2017-08-03T05:52:20.312Z,12.68
2017-08-03T05:54:48.588Z,11.60
2017-08-03T05:57:17.251Z,10.32
2017-08-03T05:59:45.509Z,11.85
2017-08-03T06:02:13.788Z,10.35
2017-08-03T06:04:42.101Z,13.52
2017-08-03T06:07:10.392Z,13.13
2017-08-03T06:12:14.053Z,13.35
2017-08-03T06:14:42.319Z,14.32
2017-08-03T06:17:10.600Z,14.43
2017-08-03T06:19:38.920Z,15.35
2017-08-03T06:22:07.959Z,15.65
2017-08-03T06:24:36.232Z,19.77
2017-08-03T06:27:04.547Z,14.55
2017-08-03T06:29:33.596Z,16.85
2017-08-03T06:32:02.639Z,15.48
2017-08-03T06:34:30.963Z,16.08
2017-08-03T06:36:59.243Z,15.13
2017-08-03T06:39:27.521Z,17.85
2017-08-03T06:41:55.836Z,17.08
2017-08-03T06:44:24.124Z,17.27
2017-08-03T06:46:52.400Z,16.42
2017-08-03T06:49:20.739Z,14.77
2017-08-03T06:51:49.018Z,15.10
2017-08-03T06:54:17.319Z,14.98
2017-08-03T06:56:45.642Z,15.20
2017-08-03T06:59:13.919Z,15.48
2017-08-03T07:01:42.208Z,16.20
2017-08-03T07:04:10.509Z,18.62
2017-08-03T07:06:38.783Z,17.50
2017-08-03T07:09:07.060Z,17.33
2017-08-03T07:11:35.375Z,17.02
2017-08-03T07:14:03.652Z,18.17
2017-08-03T07:16:31.926Z,18.87
2017-08-03T07:19:00.245Z,17.73
2017-08-03T07:21:29.293Z,16.92
2017-08-03T07:23:57.563Z,19.45
2017-08-03T07:26:25.945Z,16.80
2017-08-03T07:28:54.987Z,18.37
2017-08-03T07:31:23.270Z,17.37
2017-08-03T07:33:51.567Z,18.12
2017-08-03T07:36:19.871Z,16.27
2017-08-03T07:38:48.147Z,16.92
2017-08-03T07:41:16.469Z,17.05
2017-08-03T07:43:44.740Z,17.52
2017-08-03T07:46:13.020Z,17.95
2017-08-03T07:48:41.332Z,18.30
2017-08-03T07:51:09.612Z,17.92
2017-08-03T07:53:37.905Z,18.40
2017-08-03T07:56:06.232Z,18.90
2017-08-03T07:58:34.512Z,18.33
2017-08-03T08:01:03.531Z,18.40
2017-08-03T08:03:31.832Z,17.70
2017-08-03T08:06:00.112Z,19.77
2017-08-03T08:08:28.392Z,19.27
2017-08-03T08:10:56.692Z,18.42
2017-08-03T08:13:25.731Z,18.83
2017-08-03T08:15:54.011Z,16.75
2017-08-03T08:18:22.621Z,16.92
2017-08-03T08:20:50.896Z,16.87
2017-08-03T08:23:19.180Z,19.02
2017-08-03T08:25:47.500Z,22.05
2017-08-03T08:28:15.776Z,19.10
2017-08-03T08:30:44.052Z,19.55
2017-08-03T08:33:12.364Z,20.20
2017-08-03T08:35:41.403Z,16.58
2017-08-03T08:38:09.679Z,21.98
2017-08-03T08:40:38.000Z,17.05
2017-08-03T08:43:06.283Z,21.15
2017-08-03T08:45:34.573Z,15.85
2017-08-03T08:48:02.899Z,19.05
2017-08-03T08:50:31.176Z,16.35
2017-08-03T08:52:59.560Z,15.70
2017-08-03T08:55:27.876Z,20.90
2017-08-03T08:57:56.160Z,18.67
2017-08-03T09:00:24.432Z,20.83
2017-08-03T09:02:53.756Z,16.83
2017-08-03T09:05:22.804Z,18.92
2017-08-03T09:07:51.084Z,17.55
2017-08-03T09:10:20.167Z,17.05
2017-08-03T09:12:48.443Z,20.23
2017-08-03T09:15:16.736Z,19.33
2017-08-03T09:17:45.051Z,18.40
2017-08-03T09:20:14.108Z,22.33
2017-08-03T09:22:42.383Z,18.35
2017-08-03T09:25:10.712Z,18.70
2017-08-03T09:27:38.987Z,17.80
2017-08-03T09:30:07.362Z,19.12
2017-08-03T09:32:35.672Z,20.23
2017-08-03T09:35:04.720Z,23.20
2017-08-03T09:37:32.999Z,23.45
2017-08-03T09:40:01.323Z,20.67
2017-08-03T09:42:29.601Z,25.92
2017-08-03T09:44:57.879Z,22.80
2017-08-03T09:47:26.237Z,23.85
2017-08-03T09:49:54.516Z,23.35
2017-08-03T09:52:22.800Z,26.33
2017-08-03T09:54:51.144Z,28.33
2017-08-03T09:57:20.197Z,28.02
2017-08-03T09:59:48.479Z,27.48
2017-08-03T10:02:17.574Z,24.15
2017-08-03T10:04:46.612Z,27.55
2017-08-03T10:07:14.884Z,25.33
2017-08-03T10:09:43.208Z,24.23
2017-08-03T10:12:11.483Z,25.48
2017-08-03T10:14:39.768Z,23.67
2017-08-03T10:17:08.093Z,25.00
2017-08-03T10:19:36.368Z,24.75
2017-08-03T10:22:04.657Z,23.80
2017-08-03T10:24:32.987Z,24.85
2017-08-03T10:27:01.311Z,21.90
2017-08-03T10:29:29.595Z,22.35
2017-08-03T10:31:57.929Z,25.58
2017-08-03T10:34:26.968Z,21.60
2017-08-03T10:36:55.256Z,19.25
2017-08-03T10:39:23.580Z,20.95
2017-08-03T10:41:51.868Z,18.48
2017-08-03T10:44:20.147Z,18.25
2017-08-03T10:46:48.476Z,22.20
2017-08-03T10:49:16.759Z,21.23
2017-08-03T10:51:45.047Z,21.45
2017-08-03T10:54:14.124Z,17.50
2017-08-03T10:56:43.175Z,18.60
2017-08-03T10:59:11.455Z,17.08
2017-08-03T11:01:40.535Z,17.92
2017-08-03T11:04:09.584Z,15.97
2017-08-03T11:06:37.871Z,20.90
2017-08-03T11:09:06.952Z,17.55
2017-08-03T11:11:36.000Z,16.27
2017-08-03T11:14:04.284Z,16.65
2017-08-03T11:16:33.371Z,17.48
2017-08-03T11:19:02.420Z,15.63
2017-08-03T11:21:30.699Z,16.58
2017-08-03T11:23:59.016Z,15.30
2017-08-03T11:26:27.300Z,16.60
2017-08-03T11:28:56.595Z,17.12
2017-08-03T11:31:24.932Z,21.48
2017-08-03T11:33:53.203Z,20.00
2017-08-03T11:36:21.496Z,16.85
2017-08-03T11:38:50.595Z,18.95
2017-08-03T11:41:19.652Z,14.10
2017-08-03T11:43:47.945Z,13.38
2017-08-03T11:46:16.404Z,14.00
2017-08-03T11:48:44.691Z,12.93
2017-08-03T11:51:12.971Z,12.37
2017-08-03T11:53:41.304Z,13.13
2017-08-03T11:56:09.587Z,13.85
2017-08-03T11:58:37.872Z,13.23
2017-08-03T12:01:06.188Z,12.45
2017-08-03T12:03:34.475Z,16.63
2017-08-03T12:06:02.756Z,14.25
2017-08-03T12:08:31.228Z,11.98
2017-08-03T12:10:59.508Z,10.60
2017-08-03T12:13:28.560Z,12.30
2017-08-03T12:15:56.876Z,14.23
2017-08-03T12:18:25.167Z,14.30
2017-08-03T12:20:53.443Z,12.57
2017-08-03T12:23:21.786Z,12.60
2017-08-03T12:25:50.048Z,15.97
2017-08-03T12:28:18.340Z,16.75
2017-08-03T12:30:46.656Z,13.37
2017-08-03T12:33:14.941Z,12.03
2017-08-03T12:35:43.223Z,12.32
2017-08-03T12:38:11.547Z,12.93
2017-08-03T12:40:39.828Z,15.05
2017-08-03T12:43:08.100Z,9.88
2017-08-03T12:45:36.416Z,10.68
2017-08-03T12:48:04.700Z,11.30
2017-08-03T12:50:33.179Z,11.12
2017-08-03T12:53:01.499Z,9.73
2017-08-03T12:55:30.536Z,11.30
2017-08-03T12:57:59.820Z,13.10
2017-08-03T13:00:28.236Z,12.77
2017-08-03T13:02:56.512Z,14.53
2017-08-03T13:05:24.792Z,10.80
2017-08-03T13:07:53.104Z,9.97
2017-08-03T13:10:22.164Z,11.68
2017-08-03T13:12:50.440Z,11.83
2017-08-03T13:15:18.775Z,10.17
2017-08-03T13:17:47.068Z,14.32
2017-08-03T13:20:15.333Z,12.77
2017-08-03T13:22:44.442Z,12.90
2017-08-03T13:25:12.731Z,10.53
2017-08-03T13:27:40.996Z,12.37
2017-08-03T13:30:09.320Z,11.73
2017-08-03T13:32:37.579Z,8.93
2017-08-03T13:35:05.869Z,9.17
2017-08-03T13:37:34.400Z,11.10
2017-08-03T13:40:02.676Z,9.00
2017-08-03T13:42:30.949Z,9.93
2017-08-03T13:44:59.269Z,13.27
2017-08-03T13:47:28.319Z,8.77
2017-08-03T13:49:56.584Z,9.60
2017-08-03T13:52:24.981Z,8.70
2017-08-03T13:54:54.012Z,12.67
2017-08-03T13:57:22.304Z,11.03
2017-08-03T13:59:50.647Z,11.40
2017-08-03T14:02:18.941Z,10.60
2017-08-03T14:04:47.220Z,9.70
2017-08-03T14:07:16.311Z,10.90
2017-08-03T14:09:44.572Z,11.23
2017-08-03T14:12:12.843Z,8.43
2017-08-03T14:14:41.168Z,9.60
2017-08-03T14:17:10.191Z,6.97
2017-08-03T14:19:38.460Z,6.10
2017-08-03T14:22:06.772Z,6.73
2017-08-03T14:24:36.100Z,9.43
2017-08-03T14:27:04.379Z,6.63
2017-08-03T14:29:32.689Z,5.37
2017-08-03T14:32:01.735Z,5.40
2017-08-03T14:34:30.000Z,7.83
2017-08-03T14:36:58.304Z,5.73
2017-08-03T14:39:26.567Z,5.83
2017-08-03T14:41:54.844Z,5.67
2017-08-03T14:44:23.145Z,7.00
2017-08-03T14:46:51.411Z,9.50
2017-08-03T14:49:19.687Z,7.50
2017-08-03T14:51:48.754Z,7.50
2017-08-03T14:54:17.020Z,5.00
2017-08-03T14:56:45.308Z,6.30
2017-08-03T14:59:13.614Z,7.23
2017-08-03T15:01:41.884Z,6.57
2017-08-03T15:04:10.144Z,7.30
2017-08-03T15:06:38.559Z,6.50
2017-08-03T15:09:06.839Z,6.43
2017-08-03T15:11:35.149Z,7.43
2017-08-03T15:14:03.448Z,7.30
2017-08-03T15:16:31.707Z,5.60
2017-08-03T15:18:59.984Z,6.67
2017-08-03T15:21:28.284Z,11.20
2017-08-03T15:23:56.556Z,5.70
2017-08-03T15:26:25.592Z,5.10
2017-08-03T15:28:53.908Z,7.30
2017-08-03T15:31:22.949Z,5.80
2017-08-03T15:33:51.224Z,6.90
2017-08-03T15:36:19.533Z,5.90
2017-08-03T15:38:47.813Z,7.13
2017-08-03T15:41:16.726Z,8.50
2017-08-03T15:43:45.024Z,7.40
2017-08-03T15:46:13.340Z,5.40
2017-08-03T15:48:41.603Z,8.10
2017-08-03T15:51:10.012Z,9.83
2017-08-03T15:53:40.008Z,7.37
2017-08-03T15:56:08.309Z,7.63
2017-08-03T15:58:36.723Z,6.47
2017-08-03T16:01:05.831Z,7.43
2017-08-03T16:03:34.122Z,7.20
2017-08-03T16:06:02.649Z,7.80
2017-08-03T16:08:30.935Z,13.10
2017-08-03T16:10:59.200Z,8.93
2017-08-03T16:13:27.518Z,11.20
2017-08-03T16:15:56.551Z,13.20
2017-08-03T16:18:24.819Z,10.50
2017-08-03T16:20:53.127Z,10.93
2017-08-03T16:23:21.400Z,8.27
2017-08-03T16:25:49.676Z,11.77
2017-08-03T16:28:17.991Z,11.33
2017-08-03T16:30:46.296Z,9.10
2017-08-03T16:33:14.568Z,10.63
2017-08-03T16:35:42.884Z,10.80
2017-08-03T16:38:11.937Z,11.60
2017-08-03T16:40:40.480Z,10.30
2017-08-03T16:43:08.788Z,9.53
2017-08-03T16:45:37.824Z,9.37
2017-08-03T16:48:07.270Z,9.07
2017-08-03T16:50:35.677Z,9.70
2017-08-03T16:53:03.981Z,8.70
2017-08-03T16:55:32.252Z,10.00
2017-08-03T16:58:01.327Z,10.47
2017-08-03T17:00:30.363Z,7.22
2017-08-03T17:02:58.648Z,15.90
2017-08-03T17:05:26.976Z,7.20
2017-08-03T17:07:55.239Z,9.23
2017-08-03T17:10:23.516Z,7.73
2017-08-03T17:12:51.831Z,8.87
2017-08-03T17:15:20.386Z,13.43
2017-08-03T17:17:48.700Z,7.90
2017-08-03T17:20:17.021Z,10.70
2017-08-03T17:22:45.292Z,7.20
2017-08-03T17:25:13.551Z,6.80
2017-08-03T17:27:42.056Z,9.50
2017-08-03T17:30:10.324Z,7.60
2017-08-03T17:32:38.600Z,7.80
2017-08-03T17:35:07.072Z,7.33
2017-08-03T17:37:35.335Z,7.50
2017-08-03T17:40:04.375Z,7.80
2017-08-03T17:42:32.988Z,7.20
2017-08-03T17:45:02.034Z,10.60
2017-08-03T17:47:30.321Z,7.73
2017-08-03T17:49:58.628Z,8.70
2017-08-03T17:52:26.898Z,9.60
2017-08-03T17:54:55.157Z,6.60
2017-08-03T17:57:23.484Z,8.17
2017-08-03T17:59:52.523Z,8.67
2017-08-03T18:02:20.792Z,6.87
2017-08-03T18:04:49.111Z,7.17
2017-08-03T18:07:17.384Z,7.97
2017-08-03T18:09:45.658Z,8.40
2017-08-03T18:12:13.992Z,7.23
2017-08-03T18:14:42.263Z,8.73
2017-08-03T18:17:10.543Z,8.63
2017-08-03T18:19:38.844Z,7.70
2017-08-03T18:22:07.110Z,6.80
2017-08-03T18:24:36.172Z,8.97
2017-08-03T18:27:04.480Z,7.40
2017-08-03T18:29:32.880Z,10.27
2017-08-03T18:32:01.156Z,7.50
2017-08-03T18:34:32.737Z,9.23
2017-08-03T18:37:03.010Z,7.67
2017-08-03T18:39:31.272Z,8.40
2017-08-03T18:42:00.360Z,10.10
2017-08-03T18:44:29.394Z,14.60
2017-08-03T18:46:57.676Z,7.87
2017-08-03T18:49:25.975Z,10.67
2017-08-03T18:51:55.099Z,8.87
2017-08-03T18:54:23.408Z,8.30
2017-08-03T18:56:52.494Z,7.07
2017-08-03T18:59:21.544Z,8.33
2017-08-03T19:01:49.815Z,8.43
2017-08-03T19:04:18.953Z,11.25
2017-08-03T19:06:47.224Z,7.70
2017-08-03T19:09:15.505Z,9.07
2017-08-03T19:11:43.832Z,8.40
2017-08-03T19:14:12.102Z,7.80
2017-08-03T19:16:40.379Z,7.90
2017-08-03T19:19:13.193Z,7.90
2017-08-03T19:21:42.223Z,10.00
2017-08-03T19:24:10.501Z,10.43
2017-08-03T19:26:38.820Z,10.15
2017-08-03T19:29:07.100Z,7.12
2017-08-03T19:31:35.375Z,10.07
2017-08-03T19:34:03.683Z,6.55
2017-08-03T19:36:31.947Z,7.23
2017-08-03T19:39:00.219Z,5.70
2017-08-03T19:41:28.551Z,5.97
2017-08-03T19:43:57.596Z,9.63
2017-08-03T19:46:25.864Z,8.02
2017-08-03T19:48:54.200Z,8.30
2017-08-03T19:51:22.475Z,6.20
2017-08-03T19:53:50.751Z,13.73
2017-08-03T19:56:19.068Z,7.37
2017-08-03T19:58:47.436Z,10.38
2017-08-03T20:01:16.647Z,10.00
2017-08-03T20:03:44.947Z,10.50
2017-08-03T20:06:13.988Z,7.62
2017-08-03T20:08:49.153Z,8.75
2017-08-03T20:11:18.197Z,7.20
2017-08-03T20:13:46.900Z,7.93
2017-08-03T20:16:16.383Z,7.22
2017-08-03T20:18:45.424Z,7.45
2017-08-03T20:21:13.696Z,9.00
2017-08-03T20:23:41.991Z,10.63
2017-08-03T20:26:11.028Z,8.40
2017-08-03T20:28:39.307Z,10.25
2017-08-03T20:31:07.623Z,9.43
2017-08-03T20:33:35.891Z,7.30
2017-08-03T20:36:04.163Z,8.18
2017-08-03T20:38:32.472Z,8.45
2017-08-03T20:41:00.743Z,11.32
2017-08-03T20:43:29.784Z,9.95
2017-08-03T20:45:58.099Z,9.65
2017-08-03T20:48:26.367Z,8.48
2017-08-03T20:50:54.713Z,9.10
2017-08-03T20:53:23.013Z,9.20
2017-08-03T20:55:51.288Z,11.02
2017-08-03T20:58:20.243Z,9.43
2017-08-03T21:00:48.543Z,9.98
2017-08-03T21:03:16.824Z,8.18
2017-08-03T21:05:45.076Z,9.43
2017-08-03T21:08:13.394Z,10.52
2017-08-03T21:10:41.664Z,8.63
2017-08-03T21:13:09.937Z,9.07
2017-08-03T21:15:38.244Z,9.95
2017-08-03T21:18:07.288Z,9.25
2017-08-03T21:20:35.551Z,9.50
2017-08-03T21:23:03.864Z,8.65
2017-08-03T21:25:32.140Z,7.72
2017-08-03T21:28:00.404Z,7.43
2017-08-03T21:30:28.716Z,8.13
2017-08-03T21:32:57.760Z,9.73
2017-08-03T21:35:26.027Z,9.93
2017-08-03T21:37:54.328Z,7.30
2017-08-03T21:40:23.367Z,9.82
2017-08-03T21:42:51.657Z,6.55
2017-08-03T21:45:19.968Z,6.85
2017-08-03T21:47:48.265Z,6.43
2017-08-03T21:50:16.658Z,6.28
2017-08-03T21:52:45.733Z,6.28
2017-08-03T21:55:14.773Z,6.80
2017-08-03T21:57:43.040Z,7.00
2017-08-03T22:00:11.352Z,5.55
2017-08-03T22:02:39.624Z,5.80
2017-08-03T22:05:07.904Z,5.87
2017-08-03T22:07:36.219Z,6.40
2017-08-03T22:12:39.887Z,7.45
2017-08-03T22:15:08.168Z,6.32
2017-08-03T22:17:37.201Z,5.87
2017-08-03T22:20:05.505Z,7.70
2017-08-03T22:22:34.552Z,7.15
2017-08-03T22:25:02.812Z,6.85
2017-08-03T22:27:31.118Z,6.28
2017-08-03T22:30:00.168Z,6.80
2017-08-03T22:32:28.437Z,7.35
2017-08-03T22:34:56.743Z,8.95
2017-08-03T22:37:25.023Z,6.37
2017-08-03T22:39:53.626Z,7.85
2017-08-03T22:42:22.011Z,6.95
2017-08-03T22:44:51.049Z,10.07
2017-08-03T22:47:20.348Z,7.55
2017-08-03T22:49:48.671Z,7.45
2017-08-03T22:52:17.143Z,8.50
2017-08-03T22:54:45.447Z,8.10
2017-08-03T22:57:13.752Z,6.62
2017-08-03T22:59:42.032Z,8.15
2017-08-03T23:02:10.308Z,7.43
2017-08-03T23:04:38.616Z,7.32
2017-08-03T23:07:07.648Z,6.50
2017-08-03T23:09:35.927Z,6.70
2017-08-03T23:12:04.248Z,6.90
2017-08-03T23:14:32.517Z,9.07
2017-08-03T23:17:00.785Z,7.37
2017-08-03T23:19:29.099Z,8.30
2017-08-03T23:21:57.387Z,7.68
2017-08-03T23:24:25.660Z,8.60
2017-08-03T23:26:54.180Z,6.22
2017-08-03T23:29:23.216Z,8.95
2017-08-03T23:31:51.484Z,9.38
2017-08-03T23:34:19.795Z,8.77
2017-08-03T23:36:48.847Z,7.95
2017-08-03T23:39:17.119Z,8.00
2017-08-03T23:41:45.412Z,9.57
2017-08-03T23:44:13.675Z,7.95
2017-08-03T23:46:41.956Z,8.10
2017-08-03T23:49:10.251Z,7.97
2017-08-03T23:51:38.518Z,8.88
2017-08-03T23:54:06.800Z,9.10
2017-08-03T23:56:35.100Z,9.60
2017-08-03T23:59:03.368Z,10.75
